Time;durP1;ratioP1;P1;durP2;ratioP2;P2;SDS_P1;SDS_P2;PMS_P1;PMS_P2;Temp;Humidity;BMP_temperature;BMP_pressure;BME280_temperature;BME280_humidity;BME280_pressure;Samples;Min_cycle;Max_cycle;Signal;HPM_P1;HPM_P2
2021/01/15 07:49:12;;;;;;;27.00;13.13;;;;;;;;;;4948288;29;20098;-83
2021/01/15 07:51:43;;;;;;;26.23;12.95;;;;;;;;;;4944322;29;20098;-83
2021/01/15 07:55:07;;;;;;;27.88;12.98;;;0.80;99.90;;;;;;4928193;29;20111;-84
2021/01/15 07:58:00;;;;;;;31.27;13.48;;;0.70;99.90;;;;;;4943949;29;20045;-83
2021/01/15 08:00:35;;;;;;;31.63;13.05;;;0.70;99.90;;;;;;4911760;29;20067;-82
2021/01/15 08:03:02;;;;;;;24.75;11.85;;;;;;;;;;4962972;28;20054;-83
2021/01/15 08:05:33;;;;;;;26.58;13.15;;;;;;;;;;5000018;28;20102;-83
2021/01/15 08:08:31;;;;;;;28.10;13.27;;;2.20;99.90;;;;;;5000516;28;20073;-83
2021/01/15 08:11:11;;;;;;;25.70;12.23;;;0.60;99.90;;;;;;4951037;28;20074;-83
2021/01/15 08:13:50;;;;;;;27.95;13.77;;;;;;;;;;4984495;28;20046;-84
2021/01/15 08:16:18;;;;;;;28.92;12.93;;;;;;;;;;5000778;28;20047;-83
2021/01/15 08:18:46;;;;;;;27.23;13.35;;;;;;;;;;4999951;28;20038;-83
2021/01/15 08:21:21;;;;;;;25.58;12.45;;;0.60;99.90;;;;;;4998864;28;20145;-83
2021/01/15 08:24:07;;;;;;;28.63;12.80;;;0.60;99.90;;;;;;4982334;28;20066;-83
2021/01/15 08:26:53;;;;;;;26.38;12.45;;;0.60;99.90;;;;;;5002137;28;20039;-83
2021/01/15 08:29:26;;;;;;;25.88;12.30;;;0.60;99.90;;;;;;4985712;28;20038;-83
2021/01/15 08:31:56;;;;;;;26.08;13.73;;;;;;;;;;4985303;28;20511;-83
2021/01/15 08:38:30;;;;;;;29.98;13.48;;;0.70;99.90;;;;;;4999825;28;20056;-83
2021/01/15 09:30:35;;;;;;;32.35;14.52;;;0.70;99.90;;;;;;4989815;28;20055;-82
2021/01/15 09:43:27;;;;;;;29.98;14.75;;;;;;;;;;4859452;29;20059;-82
2021/01/15 10:29:09;;;;;;;32.50;14.20;;;1.10;99.90;;;;;;4976969;28;20516;-82
2021/01/15 10:32:41;;;;;;;29.88;13.80;;;1.10;99.90;;;;;;4878526;29;20033;-82
2021/01/15 15:53:56;;;;;;;8.75;5.10;;;-0.10;99.90;;;;;;5263210;23;20063;-83
2021/01/15 16:27:21;;;;;;;10.80;5.53;;;-0.40;99.90;;;;;;5157261;23;20118;-83
2021/01/15 16:29:57;;;;;;;11.02;5.50;;;1.00;99.90;;;;;;4958306;28;20055;-82
2021/01/15 16:33:40;;;;;;;12.00;5.55;;;-0.40;99.90;;;;;;4974497;29;20047;-82
2021/01/15 16:36:12;;;;;;;11.20;5.32;;;-0.50;99.90;;;;;;4897930;29;20051;-82
2021/01/15 16:38:42;;;;;;;11.15;5.72;;;;;;;;;;4942013;29;20549;-82
2021/01/15 16:41:11;;;;;;;13.18;5.88;;;;;;;;;;4957283;29;20062;-82
2021/01/15 16:43:40;;;;;;;11.20;5.72;;;-0.50;99.90;;;;;;4958915;29;20040;-82
2021/01/15 16:46:08;;;;;;;10.03;5.20;;;;;;;;;;4933400;29;20047;-82
2021/01/15 16:48:39;;;;;;;12.80;5.75;;;;;;;;;;4962682;29;20431;-82
2021/01/15 16:51:05;;;;;;;11.57;5.50;;;-1.10;99.90;;;;;;4945622;29;20051;-82
2021/01/15 16:53:32;;;;;;;11.63;5.28;;;;;;;;;;4942212;29;20039;-83
2021/01/15 16:55:58;;;;;;;15.27;5.07;;;;;;;;;;4941616;29;20120;-81
2021/01/15 16:58:24;;;;;;;11.02;5.35;;;;;;;;;;4941146;29;20047;-81
2021/01/15 17:00:50;;;;;;;13.13;5.35;;;;;;;;;;4940860;29;20256;-82
2021/01/15 17:03:17;;;;;;;11.95;5.22;;;;;;;;;;4940792;29;20195;-81
2021/01/15 17:05:43;;;;;;;12.18;6.20;;;;;;;;;;4942099;29;20437;-81
2021/01/15 17:08:10;;;;;;;11.30;5.40;;;;;;;;;;4941142;29;20047;-82
2021/01/15 17:10:37;;;;;;;9.77;5.20;;;;;;;;;;4941147;29;20062;-81
2021/01/15 17:13:04;;;;;;;13.35;5.90;;;-0.30;99.90;;;;;;4955755;29;20055;-81
2021/01/15 17:15:31;;;;;;;10.18;5.00;;;-0.30;99.90;;;;;;4932166;29;20123;-82
2021/01/15 17:17:58;;;;;;;11.10;5.45;;;;;;;;;;4939810;29;20047;-81
2021/01/15 17:20:25;;;;;;;11.38;4.78;;;;;;;;;;4937374;29;20138;-81
2021/01/15 17:22:52;;;;;;;12.95;4.88;;;;;;;;;;4939745;29;20138;-81
2021/01/15 17:25:19;;;;;;;9.65;4.18;;;0.40;99.90;;;;;;4958725;28;20071;-81
2021/01/15 17:27:49;;;;;;;11.57;5.07;;;;;;;;;;4960235;29;20055;-80
2021/01/15 17:30:15;;;;;;;11.10;5.22;;;;;;;;;;4959710;28;20311;-82
2021/01/15 17:32:45;;;;;;;10.10;4.20;;;;;;;;;;4960580;29;20047;-82
2021/01/15 17:35:12;;;;;;;10.40;5.38;;;;;;;;;;4958780;29;20113;-81
2021/01/15 17:37:39;;;;;;;11.77;5.22;;;;;;;;;;4967776;28;20074;-80
2021/01/15 17:40:07;;;;;;;9.70;4.68;;;;;;;;;;4978993;28;20053;-81
2021/01/15 17:42:33;;;;;;;11.95;5.00;;;;;;;;;;4961084;28;20072;-82
2021/01/15 17:44:59;;;;;;;10.57;5.22;;;;;;;;;;4977874;28;20047;-81
2021/01/15 17:47:27;;;;;;;11.25;5.32;;;;;;;;;;4978585;28;20192;-81
2021/01/15 17:49:53;;;;;;;15.20;5.57;;;;;;;;;;4960408;28;20051;-81
2021/01/15 17:52:20;;;;;;;12.30;5.75;;;;;;;;;;4961086;28;20046;-81
2021/01/15 17:54:47;;;;;;;8.88;4.35;;;;;;;;;;4960648;28;20066;-81
2021/01/15 17:57:13;;;;;;;9.80;5.07;;;;;;;;;;4961507;28;20043;-81
2021/01/15 17:59:40;;;;;;;6.20;3.40;;;;;;;;;;4978003;28;20038;-81
2021/01/15 18:02:06;;;;;;;9.10;3.72;;;;;;;;;;4957770;29;20114;-81
2021/01/15 18:04:32;;;;;;;11.40;3.72;;;;;;;;;;4943343;29;20047;-82
2021/01/15 18:06:58;;;;;;;8.40;4.05;;;;;;;;;;4961844;28;20117;-80
2021/01/15 18:09:24;;;;;;;8.85;4.57;;;;;;;;;;4943331;29;20425;-81
2021/01/15 18:11:50;;;;;;;10.45;4.75;;;;;;;;;;4942097;29;20047;-81
2021/01/15 18:14:17;;;;;;;10.50;4.95;;;;;;;;;;4941082;29;20097;-81
2021/01/15 18:16:43;;;;;;;11.20;5.32;;;;;;;;;;4954885;28;20448;-82
2021/01/15 18:19:09;;;;;;;9.02;4.38;;;-0.30;99.90;;;;;;4959409;28;20051;-81
2021/01/15 18:21:38;;;;;;;11.30;4.15;;;-0.30;99.90;;;;;;4960583;28;20056;-81
2021/01/15 18:24:06;;;;;;;8.32;3.58;;;-0.30;99.90;;;;;;4959529;28;20097;-80
2021/01/15 18:26:32;;;;;;;6.95;3.17;;;;;;;;;;4976860;28;20047;-81
2021/01/15 18:28:58;;;;;;;9.40;3.85;;;;;;;;;;4959741;28;20046;-81
2021/01/15 18:31:27;;;;;;;8.75;4.15;;;;;;;;;;4960390;28;20062;-81
2021/01/15 18:33:53;;;;;;;10.77;4.67;;;;;;;;;;4956538;29;20133;-81
2021/01/15 18:36:19;;;;;;;4.90;2.40;;;;;;;;;;4956497;28;20050;-81
2021/01/15 18:38:45;;;;;;;8.00;4.03;;;;;;;;;;4960066;28;20047;-81
2021/01/15 18:41:12;;;;;;;5.93;2.92;;;;;;;;;;4979134;28;20468;-80
2021/01/15 18:43:38;;;;;;;5.40;2.53;;;;;;;;;;4962037;28;20134;-81
2021/01/15 18:46:05;;;;;;;5.47;2.40;;;;;;;;;;4960929;28;20047;-81
2021/01/15 18:48:31;;;;;;;4.70;2.00;;;;;;;;;;4977112;28;20051;-81
2021/01/15 18:50:57;;;;;;;5.63;2.88;;;;;;;;;;4959948;28;20390;-81
2021/01/15 18:53:23;;;;;;;4.95;2.80;;;;;;;;;;4960579;28;20054;-81
2021/01/15 18:55:49;;;;;;;7.20;2.92;;;;;;;;;;4959861;28;20085;-81
2021/01/15 18:58:15;;;;;;;7.43;2.90;;;;;;;;;;4959643;28;20149;-81
2021/01/15 19:00:41;;;;;;;5.40;3.03;;;;;;;;;;4960494;28;20544;-81
2021/01/15 19:03:09;;;;;;;5.60;2.45;;;;;;;;;;4960725;28;20058;-81
2021/01/15 19:05:35;;;;;;;6.43;3.15;;;;;;;;;;4959771;28;20047;-81
2021/01/15 19:08:03;;;;;;;5.57;2.78;;;;;;;;;;4976394;28;20082;-82
2021/01/15 19:10:29;;;;;;;5.93;3.15;;;;;;;;;;4959478;28;20038;-80
2021/01/15 19:12:57;;;;;;;7.82;3.53;;;-0.40;99.90;;;;;;4959056;28;20082;-80
2021/01/15 19:15:33;;;;;;;9.23;3.83;;;;;;;;;;4955943;29;20054;-82
2021/01/15 19:18:00;;;;;;;11.93;4.20;;;;;;;;;;4956814;29;20469;-81
2021/01/15 19:20:27;;;;;;;6.32;3.03;;;;;;;;;;4940532;29;20489;-81
2021/01/15 19:22:53;;;;;;;7.13;3.35;;;;;;;;;;4939599;29;20043;-81
2021/01/15 19:25:19;;;;;;;6.85;3.67;;;-0.40;99.90;;;;;;4938853;29;20050;-81
2021/01/15 19:27:45;;;;;;;7.97;3.40;;;;;;;;;;4939424;29;20082;-81
2021/01/15 19:30:11;;;;;;;4.88;2.67;;;;;;;;;;4939284;29;20173;-81
2021/01/15 19:32:37;;;;;;;5.70;2.50;;;;;;;;;;4945872;28;20085;-80
2021/01/15 19:35:05;;;;;;;7.13;3.47;;;-0.50;99.90;;;;;;4940372;29;20047;-81
2021/01/15 19:37:32;;;;;;;6.78;2.78;;;;;;;;;;4939570;29;20131;-81
2021/01/15 19:39:58;;;;;;;6.57;2.70;;;;;;;;;;4939756;29;20051;-81
2021/01/15 19:42:24;;;;;;;5.30;2.50;;;;;;;;;;4939553;29;20050;-81
2021/01/15 19:44:50;;;;;;;7.03;2.38;;;;;;;;;;4939933;29;20051;-80
2021/01/15 19:47:16;;;;;;;8.23;2.78;;;;;;;;;;4939893;29;20058;-81
2021/01/15 19:49:42;;;;;;;5.18;2.92;;;;;;;;;;4943592;28;20054;-81
2021/01/15 19:52:08;;;;;;;5.65;2.90;;;;;;;;;;4959611;28;20492;-81
2021/01/15 19:54:35;;;;;;;7.60;2.67;;;;;;;;;;4977226;28;20045;-81
2021/01/15 19:57:02;;;;;;;6.13;2.65;;;;;;;;;;4959658;28;20149;-81
2021/01/15 19:59:28;;;;;;;10.23;3.30;;;;;;;;;;4960339;28;20050;-81
2021/01/15 20:01:54;;;;;;;7.07;2.65;;;;;;;;;;4960239;28;20046;-81
2021/01/15 20:04:20;;;;;;;6.30;2.83;;;;;;;;;;4962537;28;20062;-82
2021/01/15 20:06:47;;;;;;;7.18;2.75;;;;;;;;;;4950282;29;20098;-82
2021/01/15 20:09:13;;;;;;;5.20;2.90;;;;;;;;;;4942791;29;20133;-82
2021/01/15 20:11:40;;;;;;;7.05;3.10;;;;;;;;;;4942943;29;20081;-82
2021/01/15 20:14:06;;;;;;;6.68;3.20;;;;;;;;;;4943357;29;20053;-82
2021/01/15 20:16:32;;;;;;;6.28;3.00;;;;;;;;;;4946899;29;20043;-82
2021/01/15 20:18:59;;;;;;;7.88;3.85;;;;;;;;;;4943503;29;20481;-82
2021/01/15 20:21:25;;;;;;;6.20;3.07;;;;;;;;;;4946915;29;20055;-82
2021/01/15 20:23:51;;;;;;;7.30;3.10;;;;;;;;;;4941478;29;20059;-82
2021/01/15 20:26:25;;;;;;;7.53;3.00;;;2.40;99.90;;;;;;4946509;29;20138;-82
2021/01/15 20:29:27;;;;;;;7.18;2.97;;;;;;;;;;4942767;29;20142;-82
2021/01/15 20:32:35;;;;;;;7.13;3.10;;;-0.40;99.90;;;;;;4960897;29;20053;-82
2021/01/15 20:35:52;;;;;;;4.53;2.45;;;-0.40;99.90;;;;;;4962033;29;20175;-82
2021/01/15 20:38:28;;;;;;;5.15;2.13;;;;;;;;;;4962043;28;20513;-81
2021/01/15 20:40:57;;;;;;;5.93;2.60;;;-0.40;99.90;;;;;;4942826;29;20047;-81
2021/01/15 20:43:23;;;;;;;7.17;2.97;;;;;;;;;;4959849;29;20050;-81
2021/01/15 20:45:50;;;;;;;6.13;3.13;;;;;;;;;;4960732;28;20294;-81
2021/01/15 20:48:17;;;;;;;6.60;3.42;;;;;;;;;;4966872;28;20066;-82
2021/01/15 20:50:49;;;;;;;5.85;3.05;;;;;;;;;;4980233;28;20053;-82
2021/01/15 20:53:23;;;;;;;8.68;3.10;;;;;;;;;;4980230;28;20054;-82
2021/01/15 20:55:52;;;;;;;10.13;4.15;;;;;;;;;;4964398;28;20043;-82
2021/01/15 20:58:28;;;;;;;7.22;3.50;;;-0.50;99.90;;;;;;4963859;28;20518;-82
2021/01/15 21:00:56;;;;;;;6.30;2.78;;;;;;;;;;4983961;28;20047;-82
2021/01/15 21:03:23;;;;;;;6.10;2.63;;;;;;;;;;4954894;29;20082;-82
2021/01/15 21:05:50;;;;;;;5.40;3.15;;;;;;;;;;4951379;29;20474;-82
2021/01/15 21:08:20;;;;;;;6.90;3.30;;;;;;;;;;4950645;29;20079;-82
2021/01/15 21:10:46;;;;;;;5.70;3.05;;;;;;;;;;4951245;29;20110;-82
2021/01/15 21:13:17;;;;;;;6.03;3.20;;;;;;;;;;4969226;28;20039;-82
2021/01/15 21:15:43;;;;;;;7.40;3.22;;;;;;;;;;4965188;29;20043;-81
2021/01/15 21:18:18;;;;;;;7.80;3.90;;;;;;;;;;4951828;29;20485;-81
2021/01/15 21:21:09;;;;;;;8.00;3.72;;;-0.40;99.90;;;;;;4968996;28;20054;-82
2021/01/15 21:23:42;;;;;;;6.03;3.33;;;-0.40;99.90;;;;;;4966677;28;20090;-82
2021/01/15 21:26:09;;;;;;;5.47;2.90;;;;;;;;;;4950094;29;20050;-82
2021/01/15 21:28:39;;;;;;;8.25;3.10;;;;;;;;;;4948334;29;20382;-82
2021/01/15 21:31:11;;;;;;;6.10;3.22;;;;;;;;;;4965031;28;20046;-82
2021/01/15 21:33:44;;;;;;;6.03;3.28;;;-0.30;99.90;;;;;;4964416;29;20043;-82
2021/01/15 21:36:14;;;;;;;6.57;2.65;;;;;;;;;;4964074;28;20039;-82
2021/01/15 21:38:40;;;;;;;5.60;2.70;;;;;;;;;;4947879;29;20154;-81
2021/01/15 21:41:09;;;;;;;7.03;3.03;;;;;;;;;;4947358;29;20074;-82
2021/01/15 21:43:44;;;;;;;9.30;3.38;;;-0.30;99.90;;;;;;4964731;28;20047;-81
2021/01/15 21:47:17;;;;;;;6.15;3.03;;;-0.30;99.90;;;;;;4967880;28;20043;-82
2021/01/15 21:50:56;;;;;;;6.97;3.15;;;-0.30;99.90;;;;;;4975901;28;20051;-82
2021/01/15 21:53:47;;;;;;;6.65;3.22;;;-0.30;99.90;;;;;;4935153;28;20062;-83
2021/01/15 21:56:46;;;;;;;6.53;3.25;;;-0.30;99.90;;;;;;4986590;28;20047;-82
2021/01/15 21:59:32;;;;;;;7.72;3.53;;;-0.30;99.90;;;;;;4985248;28;20067;-82
2021/01/15 22:02:41;;;;;;;6.38;3.42;;;-0.40;99.90;;;;;;4986524;28;20840;-82
2021/01/15 22:09:26;;;;;;;6.90;3.33;;;-0.30;99.90;;;;;;4893961;29;20056;-82
2021/01/15 22:11:53;;;;;;;7.37;3.13;;;;;;;;;;4915584;28;20480;-82
2021/01/15 22:14:57;;;;;;;7.32;3.40;;;-0.30;99.90;;;;;;4972122;28;20076;-84
2021/01/15 22:21:20;;;;;;;9.18;3.58;;;-0.30;99.90;;;;;;4984046;28;20129;-83
2021/01/15 22:27:59;;;;;;;8.05;4.25;;;-0.40;99.90;;;;;;4914737;29;20112;-83
2021/01/15 22:31:51;;;;;;;6.35;3.13;;;-0.30;99.90;;;;;;4898249;29;20633;-83
2021/01/15 22:35:02;;;;;;;8.55;4.10;;;-0.30;99.90;;;;;;4894526;29;20077;-84
2021/01/15 23:10:28;;;;;;;10.85;4.90;;;-0.30;99.90;;;;;;4935151;29;20099;-84
2021/01/15 23:14:07;;;;;;;12.43;5.25;;;-0.20;99.90;;;;;;4896807;29;20096;-83
2021/01/15 23:17:29;;;;;;;11.02;5.78;;;-0.30;99.90;;;;;;4877172;29;20041;-83
